createdAt,value
2019-04-25T00:00:38.092Z,9.63
2019-04-25T00:01:43.942Z,11.40
2019-04-25T00:02:48.352Z,17.70
2019-04-25T00:03:53.366Z,16.40
2019-04-25T00:04:57.223Z,14.80
2019-04-25T00:06:02.265Z,9.20
2019-04-25T00:07:06.418Z,16.10
2019-04-25T00:08:11.471Z,11.70
2019-04-25T00:09:16.994Z,15.53
2019-04-25T00:10:22.043Z,17.10
2019-04-25T00:11:25.863Z,15.73
2019-04-25T00:12:29.712Z,16.73
2019-04-25T00:13:33.344Z,21.63
2019-04-25T00:14:37.995Z,13.83
2019-04-25T00:15:44.465Z,15.70
2019-04-25T00:16:47.495Z,15.60
2019-04-25T00:17:52.190Z,16.30
2019-04-25T00:18:55.984Z,14.73
2019-04-25T00:20:01.474Z,15.73
2019-04-25T00:21:22.027Z,16.20
2019-04-25T00:22:31.658Z,15.20
2019-04-25T00:23:36.371Z,15.87
2019-04-25T00:24:43.281Z,13.17
2019-04-25T00:25:52.705Z,13.37
2019-04-25T00:26:56.510Z,12.57
2019-04-25T00:28:01.714Z,18.87
2019-04-25T00:29:05.571Z,17.20
2019-04-25T00:30:09.407Z,18.47
2019-04-25T00:31:13.837Z,16.30
2019-04-25T00:32:17.471Z,16.20
2019-04-25T00:33:21.645Z,13.77
2019-04-25T00:34:25.254Z,13.93
2019-04-25T00:35:28.922Z,12.17
2019-04-25T00:36:32.554Z,15.07
2019-04-25T00:37:36.137Z,10.67
2019-04-25T00:38:39.795Z,16.60
2019-04-25T00:39:45.141Z,10.87
2019-04-25T00:40:50.587Z,9.07
2019-04-25T00:41:54.901Z,13.43
2019-04-25T00:42:58.552Z,12.00
2019-04-25T00:44:02.445Z,12.53
2019-04-25T00:45:07.516Z,14.40
2019-04-25T00:46:11.455Z,11.80
2019-04-25T00:47:15.225Z,11.70
2019-04-25T00:48:18.894Z,13.40
2019-04-25T00:49:23.642Z,14.70
2019-04-25T00:50:27.389Z,15.43
2019-04-25T00:51:31.762Z,15.30
2019-04-25T00:52:35.603Z,14.43
2019-04-25T00:53:39.236Z,14.60
2019-04-25T00:54:43.161Z,17.27
2019-04-25T00:55:46.876Z,12.20
2019-04-25T00:56:52.401Z,10.47
2019-04-25T00:57:57.589Z,12.07
2019-04-25T00:59:11.823Z,16.07
2019-04-25T01:00:24.629Z,16.20
2019-04-25T01:01:46.866Z,17.03
2019-04-25T01:02:54.542Z,16.80
2019-04-25T01:03:58.176Z,18.97
2019-04-25T01:05:02.106Z,15.03
2019-04-25T01:06:05.748Z,20.00
2019-04-25T01:07:09.433Z,12.53
2019-04-25T01:08:13.092Z,15.57
2019-04-25T01:09:18.359Z,12.23
2019-04-25T01:10:23.109Z,20.70
2019-04-25T01:11:26.899Z,16.77
2019-04-25T01:12:31.389Z,18.30
2019-04-25T01:13:35.540Z,14.23
2019-04-25T01:14:39.199Z,13.70
2019-04-25T01:15:42.835Z,17.53
2019-04-25T01:16:46.540Z,12.50
2019-04-25T01:17:51.513Z,16.57
2019-04-25T01:18:55.657Z,16.87
2019-04-25T01:19:59.250Z,18.10
2019-04-25T01:21:04.389Z,13.33
2019-04-25T01:22:08.235Z,17.97
2019-04-25T01:23:11.904Z,16.87
2019-04-25T01:24:15.927Z,14.33
2019-04-25T01:25:19.562Z,16.13
2019-04-25T01:26:23.961Z,17.43
2019-04-25T01:27:27.771Z,14.03
2019-04-25T01:28:31.457Z,16.47
2019-04-25T01:29:35.184Z,17.33
2019-04-25T01:30:39.491Z,15.03
2019-04-25T01:31:43.501Z,18.60
2019-04-25T01:32:47.285Z,21.30
2019-04-25T01:33:50.956Z,18.80
2019-04-25T01:35:03.861Z,21.13
2019-04-25T01:36:13.320Z,20.30
2019-04-25T01:37:25.843Z,23.20
2019-04-25T01:38:39.918Z,21.73
2019-04-25T01:39:57.539Z,17.93
2019-04-25T01:41:03.355Z,16.23
2019-04-25T01:42:25.293Z,23.80
2019-04-25T01:43:48.435Z,22.20
2019-04-25T01:44:54.222Z,24.13
2019-04-25T01:45:58.479Z,22.47
2019-04-25T01:47:04.099Z,24.63
2019-04-25T01:48:08.036Z,18.13
2019-04-25T01:49:11.669Z,20.83
2019-04-25T01:50:15.314Z,17.93
2019-04-25T01:51:19.058Z,16.70
2019-04-25T01:52:23.523Z,20.40
2019-04-25T01:53:27.323Z,13.60
2019-04-25T01:54:30.952Z,14.70
2019-04-25T01:55:34.702Z,17.97
2019-04-25T01:56:38.403Z,15.13
2019-04-25T01:57:45.064Z,16.90
2019-04-25T01:58:47.379Z,19.33
2019-04-25T01:59:51.377Z,16.83
2019-04-25T02:00:56.380Z,12.67
2019-04-25T02:02:00.528Z,14.47
2019-04-25T02:03:04.648Z,16.97
2019-04-25T02:04:08.452Z,14.10
2019-04-25T02:05:13.894Z,17.93
2019-04-25T02:06:17.598Z,12.63
2019-04-25T02:07:21.200Z,16.03
2019-04-25T02:08:24.853Z,13.83
2019-04-25T02:09:28.481Z,14.20
2019-04-25T02:10:32.135Z,10.23
2019-04-25T02:11:37.432Z,14.97
2019-04-25T02:12:48.479Z,16.33
2019-04-25T02:13:54.558Z,17.43
2019-04-25T02:14:57.933Z,18.07
2019-04-25T02:16:01.941Z,16.80
2019-04-25T02:17:05.596Z,22.23
2019-04-25T02:18:09.657Z,20.20
2019-04-25T02:19:14.542Z,25.00
2019-04-25T02:20:18.304Z,23.83
2019-04-25T02:21:23.491Z,16.93
2019-04-25T02:22:27.250Z,15.37
2019-04-25T02:23:30.916Z,18.13
2019-04-25T02:24:34.581Z,22.20
2019-04-25T02:25:38.223Z,19.80
2019-04-25T02:26:41.856Z,21.23
2019-04-25T02:27:45.493Z,22.40
2019-04-25T02:28:49.568Z,18.07
2019-04-25T02:29:55.184Z,21.13
2019-04-25T02:31:00.790Z,17.20
2019-04-25T02:32:08.861Z,23.17
2019-04-25T02:33:09.997Z,18.97
2019-04-25T02:34:17.779Z,16.03
2019-04-25T02:35:18.970Z,20.90
2019-04-25T02:36:24.703Z,19.07
2019-04-25T02:37:27.983Z,19.70
2019-04-25T02:38:33.986Z,19.67
2019-04-25T02:39:37.716Z,20.57
2019-04-25T02:40:41.360Z,22.40
2019-04-25T02:41:45.022Z,13.70
2019-04-25T02:42:48.656Z,17.33
2019-04-25T02:43:56.331Z,22.30
2019-04-25T02:45:02.166Z,21.10
2019-04-25T02:46:15.198Z,14.73
2019-04-25T02:47:26.514Z,21.77
2019-04-25T02:48:34.545Z,20.37
2019-04-25T02:49:40.036Z,21.07
2019-04-25T02:50:58.641Z,15.90
2019-04-25T02:52:08.451Z,15.67
2019-04-25T02:53:28.443Z,12.37
2019-04-25T02:54:32.102Z,13.63
2019-04-25T02:55:37.605Z,21.53
2019-04-25T02:56:41.621Z,17.80
2019-04-25T02:57:45.252Z,14.10
2019-04-25T02:58:49.656Z,17.50
2019-04-25T02:59:54.706Z,15.53
2019-04-25T03:01:08.102Z,18.50
2019-04-25T03:02:07.116Z,26.67
2019-04-25T03:03:10.703Z,17.03
2019-04-25T03:04:14.641Z,20.90
2019-04-25T03:05:18.379Z,15.20
2019-04-25T03:06:22.042Z,16.93
2019-04-25T03:07:25.677Z,19.17
2019-04-25T03:08:29.315Z,14.47
2019-04-25T03:09:35.195Z,21.27
2019-04-25T03:10:38.356Z,20.90
2019-04-25T03:11:41.989Z,21.70
2019-04-25T03:12:46.067Z,13.90
2019-04-25T03:13:49.722Z,15.57
2019-04-25T03:14:54.944Z,15.70
2019-04-25T03:16:00.434Z,18.97
2019-04-25T03:17:05.213Z,18.60
2019-04-25T03:18:12.439Z,18.77
2019-04-25T03:19:34.053Z,16.50
2019-04-25T03:20:47.650Z,20.30
2019-04-25T03:22:00.126Z,13.70
2019-04-25T03:23:09.501Z,16.93
2019-04-25T03:24:16.818Z,15.27
2019-04-25T03:25:19.630Z,16.83
2019-04-25T03:26:23.421Z,13.90
2019-04-25T03:27:27.095Z,21.37
2019-04-25T03:28:31.530Z,24.73
2019-04-25T03:29:35.215Z,25.73
2019-04-25T03:30:38.923Z,16.30
2019-04-25T03:31:45.033Z,17.03
2019-04-25T03:32:51.382Z,15.00
2019-04-25T03:33:55.793Z,21.20
2019-04-25T03:34:59.073Z,21.23
2019-04-25T03:36:03.550Z,16.50
2019-04-25T03:37:08.082Z,19.40
2019-04-25T03:38:11.710Z,15.67
2019-04-25T03:39:16.552Z,10.73
2019-04-25T03:40:20.348Z,16.50
2019-04-25T03:41:24.561Z,17.43
2019-04-25T03:42:28.293Z,17.13
2019-04-25T03:43:33.235Z,17.90
2019-04-25T03:44:37.260Z,17.70
2019-04-25T03:45:40.962Z,20.13
2019-04-25T03:46:45.004Z,16.80
2019-04-25T03:47:48.566Z,20.43
2019-04-25T03:48:53.766Z,21.40
2019-04-25T03:49:57.640Z,24.50
2019-04-25T03:51:02.266Z,26.13
2019-04-25T03:52:06.539Z,34.27
2019-04-25T03:53:10.518Z,31.27
2019-04-25T03:54:14.392Z,27.77
2019-04-25T03:55:18.079Z,31.50
2019-04-25T03:56:21.747Z,38.47
2019-04-25T03:57:25.829Z,38.60
2019-04-25T03:58:29.835Z,39.90
2019-04-25T03:59:33.655Z,36.77
2019-04-25T04:00:37.352Z,39.97
2019-04-25T04:01:41.021Z,35.53
2019-04-25T04:02:44.670Z,40.93
2019-04-25T04:03:48.328Z,37.90
2019-04-25T04:04:53.619Z,31.77
2019-04-25T04:05:57.457Z,24.40
2019-04-25T04:07:01.147Z,29.40
2019-04-25T04:08:06.223Z,22.40
2019-04-25T04:09:10.137Z,30.57
2019-04-25T04:10:15.411Z,22.00
2019-04-25T04:11:19.132Z,23.03
2019-04-25T04:12:24.286Z,33.40
2019-04-25T04:13:28.027Z,26.47
2019-04-25T04:14:33.725Z,32.57
2019-04-25T04:15:37.543Z,26.50
2019-04-25T04:16:44.344Z,31.70
2019-04-25T04:18:01.804Z,22.67
2019-04-25T04:19:06.948Z,26.00
2019-04-25T04:20:13.869Z,29.37
2019-04-25T04:21:23.087Z,27.83
2019-04-25T04:22:34.789Z,23.47
2019-04-25T04:23:40.097Z,31.60
2019-04-25T04:24:45.423Z,23.47
2019-04-25T04:25:49.101Z,21.03
2019-04-25T04:27:10.624Z,27.23
2019-04-25T04:28:14.955Z,25.00
2019-04-25T04:29:18.704Z,23.03
2019-04-25T04:30:24.041Z,24.07
2019-04-25T04:31:27.778Z,16.10
2019-04-25T04:32:31.425Z,21.17
2019-04-25T04:33:35.015Z,24.50
2019-04-25T04:34:38.681Z,17.60
2019-04-25T04:35:43.896Z,20.30
2019-04-25T04:36:47.868Z,25.87
2019-04-25T04:37:51.504Z,17.53
2019-04-25T04:38:55.169Z,25.37
2019-04-25T04:39:58.813Z,19.50
2019-04-25T04:41:03.932Z,19.63
2019-04-25T04:42:08.363Z,22.20
2019-04-25T04:43:12.029Z,25.00
2019-04-25T04:44:16.492Z,24.07
2019-04-25T04:45:20.343Z,28.13
2019-04-25T04:46:24.175Z,16.60
2019-04-25T04:47:27.888Z,20.20
2019-04-25T04:48:31.872Z,16.23
2019-04-25T04:49:35.866Z,18.97
2019-04-25T04:50:39.551Z,21.40
2019-04-25T04:51:44.389Z,22.30
2019-04-25T04:52:48.193Z,18.47
2019-04-25T04:53:53.577Z,19.00
2019-04-25T04:55:06.410Z,19.53
2019-04-25T04:56:04.255Z,21.10
2019-04-25T04:57:18.422Z,19.57
2019-04-25T04:58:15.012Z,19.37
2019-04-25T04:59:19.079Z,25.67
2019-04-25T05:00:24.649Z,20.13
2019-04-25T05:01:29.992Z,24.30
2019-04-25T05:02:37.995Z,22.50
2019-04-25T05:03:59.434Z,22.13
2019-04-25T05:05:19.794Z,26.77
2019-04-25T05:06:27.774Z,19.13
2019-04-25T05:07:39.141Z,22.37
2019-04-25T05:08:44.417Z,23.40
2019-04-25T05:09:48.294Z,21.63
2019-04-25T05:10:51.965Z,22.17
2019-04-25T05:11:55.616Z,25.03
2019-04-25T05:12:59.258Z,23.93
2019-04-25T05:14:04.021Z,25.90
2019-04-25T05:15:12.603Z,32.17
2019-04-25T05:16:17.712Z,26.60
2019-04-25T05:17:21.863Z,23.23
2019-04-25T05:18:37.547Z,29.80
2019-04-25T05:19:31.405Z,28.03
2019-04-25T05:20:35.633Z,23.10
2019-04-25T05:21:39.378Z,21.80
2019-04-25T05:22:44.541Z,24.47
2019-04-25T05:23:48.317Z,31.67
2019-04-25T05:24:53.537Z,41.67
2019-04-25T05:25:57.361Z,45.90
2019-04-25T05:27:00.990Z,49.90
2019-04-25T05:28:05.395Z,41.43
2019-04-25T05:29:09.029Z,46.13
2019-04-25T05:30:15.671Z,55.33
2019-04-25T05:31:21.398Z,41.57
2019-04-25T05:32:25.242Z,49.93
2019-04-25T05:33:29.033Z,40.33
2019-04-25T05:34:34.224Z,35.07
2019-04-25T05:35:38.150Z,33.67
2019-04-25T05:36:41.813Z,40.40
2019-04-25T05:37:45.827Z,31.60
2019-04-25T05:38:49.487Z,28.80
2019-04-25T05:39:53.631Z,33.87
2019-04-25T05:40:58.900Z,35.30
2019-04-25T05:42:05.196Z,27.77
2019-04-25T05:43:11.233Z,32.37
2019-04-25T05:44:15.787Z,34.60
2019-04-25T05:45:23.553Z,27.13
2019-04-25T05:46:27.747Z,23.70
2019-04-25T05:47:31.382Z,25.97
2019-04-25T05:48:35.050Z,29.13
2019-04-25T05:49:38.678Z,31.27
2019-04-25T05:50:43.694Z,35.57
2019-04-25T05:51:47.486Z,20.00
2019-04-25T05:52:51.121Z,22.37
2019-04-25T05:53:55.231Z,35.87
2019-04-25T05:54:58.893Z,37.40
2019-04-25T05:56:04.128Z,20.77
2019-04-25T05:57:07.912Z,23.13
2019-04-25T05:58:11.576Z,25.60
2019-04-25T05:59:15.218Z,21.40
2019-04-25T06:00:19.376Z,24.53
2019-04-25T06:01:24.626Z,21.83
2019-04-25T06:02:28.400Z,24.53
2019-04-25T06:03:31.992Z,27.83
2019-04-25T06:04:37.201Z,24.13
2019-04-25T06:05:40.859Z,23.80
2019-04-25T06:06:44.675Z,24.87
2019-04-25T06:07:48.375Z,21.60
2019-04-25T06:08:56.087Z,24.90
2019-04-25T06:10:19.747Z,19.17
2019-04-25T06:11:28.110Z,26.10
2019-04-25T06:12:33.610Z,22.00
2019-04-25T06:13:43.276Z,25.80
2019-04-25T06:14:46.789Z,25.53
2019-04-25T06:15:53.333Z,31.97
2019-04-25T06:16:58.678Z,18.33
2019-04-25T06:18:04.117Z,25.97
2019-04-25T06:19:18.024Z,25.70
2019-04-25T06:20:25.790Z,24.87
2019-04-25T06:21:29.397Z,20.07
2019-04-25T06:22:47.046Z,32.93
2019-04-25T06:24:08.801Z,22.03
2019-04-25T06:25:16.224Z,27.57
2019-04-25T06:26:33.114Z,19.57
2019-04-25T06:27:27.027Z,24.07
2019-04-25T06:28:34.551Z,23.70
2019-04-25T06:29:37.450Z,24.27
2019-04-25T06:30:41.155Z,18.30
2019-04-25T06:31:44.794Z,21.53
2019-04-25T06:32:48.456Z,24.00
2019-04-25T06:33:53.818Z,30.20
2019-04-25T06:34:57.981Z,23.53
2019-04-25T06:36:01.563Z,28.67
2019-04-25T06:37:06.198Z,20.80
2019-04-25T06:38:10.023Z,25.83
2019-04-25T06:39:14.189Z,27.70
2019-04-25T06:40:19.686Z,22.73
2019-04-25T06:41:25.854Z,25.13
2019-04-25T06:42:29.559Z,22.83
2019-04-25T06:43:34.239Z,16.17
2019-04-25T06:44:45.559Z,18.27
2019-04-25T06:45:55.241Z,22.83
2019-04-25T06:47:00.698Z,24.20
2019-04-25T06:48:21.273Z,24.97
2019-04-25T06:49:27.770Z,25.17
2019-04-25T06:50:31.517Z,21.73
2019-04-25T06:51:51.950Z,22.83
2019-04-25T06:52:55.616Z,23.53
2019-04-25T06:53:59.253Z,19.00
2019-04-25T06:55:03.392Z,25.10
2019-04-25T06:56:07.111Z,20.50
2019-04-25T06:57:10.799Z,17.77
2019-04-25T06:58:14.735Z,19.60
2019-04-25T06:59:18.458Z,23.30
2019-04-25T07:00:24.989Z,23.67
2019-04-25T07:01:28.933Z,21.13
2019-04-25T07:02:35.050Z,21.77
2019-04-25T07:03:38.658Z,19.33
2019-04-25T07:04:43.484Z,28.87
2019-04-25T07:05:47.691Z,29.97
2019-04-25T07:06:51.335Z,25.37
2019-04-25T07:07:55.009Z,22.13
2019-04-25T07:08:58.599Z,22.63
2019-04-25T07:10:03.615Z,22.30
2019-04-25T07:11:07.461Z,29.07
2019-04-25T07:12:11.118Z,26.23
2019-04-25T07:13:15.008Z,22.17
2019-04-25T07:14:18.640Z,15.97
2019-04-25T07:15:24.720Z,16.77
2019-04-25T07:16:27.974Z,13.17
2019-04-25T07:17:31.599Z,28.03
2019-04-25T07:18:37.086Z,19.67
2019-04-25T07:19:40.638Z,19.53
2019-04-25T07:20:45.354Z,19.83
2019-04-25T07:21:49.097Z,18.73
2019-04-25T07:22:53.734Z,20.97
2019-04-25T07:23:57.492Z,19.20
2019-04-25T07:25:01.148Z,18.77
2019-04-25T07:26:06.640Z,16.57
2019-04-25T07:27:28.414Z,26.17
2019-04-25T07:28:36.940Z,15.70
2019-04-25T07:29:43.343Z,22.13
2019-04-25T07:31:00.684Z,19.10
2019-04-25T07:32:12.226Z,14.80
2019-04-25T07:33:29.893Z,15.93
2019-04-25T07:34:34.148Z,17.40
2019-04-25T07:35:38.777Z,19.03
2019-04-25T07:36:42.430Z,14.73
2019-04-25T07:37:46.060Z,18.47
2019-04-25T07:38:49.722Z,16.13
2019-04-25T07:39:54.214Z,13.53
2019-04-25T07:40:57.970Z,14.77
2019-04-25T07:42:01.596Z,13.70
2019-04-25T07:43:05.230Z,16.57
2019-04-25T07:44:08.876Z,16.40
2019-04-25T07:45:14.080Z,17.67
2019-04-25T07:46:17.873Z,15.53
2019-04-25T07:47:21.558Z,21.83
2019-04-25T07:48:26.680Z,10.53
2019-04-25T07:49:30.544Z,10.97
2019-04-25T07:50:35.356Z,13.17
2019-04-25T07:51:39.152Z,15.17
2019-04-25T07:52:44.220Z,25.10
2019-04-25T07:53:48.113Z,17.33
2019-04-25T07:54:51.739Z,16.23
2019-04-25T07:55:55.370Z,17.17
2019-04-25T07:56:59.062Z,17.63
2019-04-25T07:58:03.180Z,17.33
2019-04-25T07:59:07.503Z,11.70
2019-04-25T08:00:14.693Z,16.73
2019-04-25T08:01:18.341Z,16.30
2019-04-25T08:02:23.318Z,13.03
2019-04-25T08:03:28.390Z,11.73
2019-04-25T08:04:32.345Z,17.90
2019-04-25T08:05:36.687Z,16.07
2019-04-25T08:06:41.832Z,17.60
2019-04-25T08:07:45.836Z,15.78
2019-04-25T08:08:49.486Z,19.15
2019-04-25T08:09:54.212Z,15.13
2019-04-25T08:11:04.067Z,17.70
2019-04-25T08:12:07.845Z,12.05
2019-04-25T08:13:11.478Z,13.15
2019-04-25T08:14:24.242Z,16.90
2019-04-25T08:15:29.972Z,14.63
2019-04-25T08:16:35.712Z,18.52
2019-04-25T08:17:47.053Z,14.73
2019-04-25T08:18:51.043Z,14.90
2019-04-25T08:19:54.647Z,18.52
2019-04-25T08:20:59.081Z,15.15
2019-04-25T08:22:03.658Z,21.52
2019-04-25T08:23:07.385Z,21.00
2019-04-25T08:24:11.062Z,19.57
2019-04-25T08:25:15.212Z,16.90
2019-04-25T08:26:18.849Z,17.07
2019-04-25T08:27:23.183Z,19.25
2019-04-25T08:28:26.911Z,17.98
2019-04-25T08:29:31.662Z,18.25
2019-04-25T08:30:36.668Z,22.77
2019-04-25T08:31:40.753Z,17.62
2019-04-25T08:32:44.736Z,17.70
2019-04-25T08:33:48.750Z,18.00
2019-04-25T08:34:54.126Z,14.78
2019-04-25T08:36:06.644Z,13.20
2019-04-25T08:37:04.088Z,11.83
2019-04-25T08:38:07.850Z,14.10
2019-04-25T08:39:14.358Z,14.00
2019-04-25T08:40:18.608Z,14.98
2019-04-25T08:41:23.815Z,18.65
2019-04-25T08:42:27.662Z,13.05
2019-04-25T08:43:32.432Z,20.15
2019-04-25T08:44:36.920Z,14.93
2019-04-25T08:45:40.804Z,20.95
2019-04-25T08:46:48.440Z,15.38
2019-04-25T08:47:49.788Z,12.10
2019-04-25T08:49:11.770Z,19.00
2019-04-25T08:50:28.944Z,17.00
2019-04-25T08:51:31.421Z,20.70
2019-04-25T08:52:36.372Z,13.53
2019-04-25T08:53:41.734Z,13.78
2019-04-25T08:54:49.695Z,17.25
2019-04-25T08:55:58.024Z,18.40
2019-04-25T08:57:04.342Z,18.42
2019-04-25T08:58:15.549Z,16.37
2019-04-25T08:59:44.295Z,16.00
2019-04-25T09:00:59.241Z,17.40
2019-04-25T09:02:16.863Z,24.45
2019-04-25T09:03:24.110Z,12.73
2019-04-25T09:04:36.015Z,16.62
2019-04-25T09:05:44.088Z,20.40
2019-04-25T09:06:47.604Z,20.92
2019-04-25T09:07:51.358Z,34.38
2019-04-25T09:08:55.011Z,29.02
2019-04-25T09:09:59.058Z,24.37
2019-04-25T09:11:03.489Z,20.77
2019-04-25T09:12:07.266Z,17.77
2019-04-25T09:13:10.928Z,19.98
2019-04-25T09:14:14.866Z,21.17
2019-04-25T09:15:18.507Z,18.00
2019-04-25T09:16:23.820Z,22.17
2019-04-25T09:17:27.580Z,20.62
2019-04-25T09:18:31.272Z,18.32
2019-04-25T09:19:36.207Z,18.87
2019-04-25T09:20:42.065Z,20.72
2019-04-25T09:21:49.378Z,19.57
2019-04-25T09:22:51.007Z,20.32
2019-04-25T09:23:54.671Z,22.30
2019-04-25T09:24:58.337Z,13.80
2019-04-25T09:26:02.004Z,24.15
2019-04-25T09:27:05.726Z,19.90
2019-04-25T09:28:09.440Z,19.10
2019-04-25T09:29:17.589Z,17.15
2019-04-25T09:30:18.682Z,19.73
2019-04-25T09:31:23.632Z,19.12
2019-04-25T09:32:27.474Z,17.57
2019-04-25T09:33:31.109Z,15.38
2019-04-25T09:34:35.558Z,16.05
2019-04-25T09:35:39.689Z,22.10
2019-04-25T09:36:43.934Z,22.48
2019-04-25T09:37:48.660Z,21.73
2019-04-25T09:38:53.936Z,22.17
2019-04-25T09:39:59.254Z,23.32
2019-04-25T09:41:03.826Z,18.92
2019-04-25T09:42:07.827Z,21.42
2019-04-25T09:43:11.471Z,16.23
2019-04-25T09:44:16.895Z,15.18
2019-04-25T09:45:33.333Z,22.10
2019-04-25T09:46:37.684Z,16.15
2019-04-25T09:47:43.782Z,14.07
2019-04-25T09:48:55.541Z,18.48
2019-04-25T09:49:59.976Z,19.95
2019-04-25T09:51:05.680Z,19.42
2019-04-25T09:52:11.068Z,15.55
2019-04-25T09:53:23.273Z,24.05
2019-04-25T09:54:40.936Z,17.75
2019-04-25T09:55:55.134Z,20.60
2019-04-25T09:57:16.652Z,20.92
2019-04-25T09:58:38.376Z,16.52
2019-04-25T09:59:43.614Z,18.48
2019-04-25T10:00:49.047Z,24.12
2019-04-25T10:01:52.689Z,23.77
2019-04-25T10:02:56.383Z,18.27
2019-04-25T10:04:00.019Z,25.57
2019-04-25T10:05:04.858Z,26.52
2019-04-25T10:06:08.521Z,31.42
2019-04-25T10:07:12.254Z,28.45
2019-04-25T10:08:15.921Z,24.65
2019-04-25T10:09:19.929Z,25.05
2019-04-25T10:10:24.148Z,27.67
2019-04-25T10:11:28.884Z,22.50
2019-04-25T10:12:34.125Z,22.65
2019-04-25T10:13:38.506Z,23.07
2019-04-25T10:14:56.729Z,30.20
2019-04-25T10:16:06.243Z,28.55
2019-04-25T10:17:09.908Z,36.95
2019-04-25T10:18:14.309Z,23.50
2019-04-25T10:19:18.263Z,22.75
2019-04-25T10:20:23.194Z,29.52
2019-04-25T10:21:27.079Z,25.00
2019-04-25T10:22:30.798Z,21.37
2019-04-25T10:23:34.729Z,31.87
2019-04-25T10:24:39.647Z,25.10
2019-04-25T10:25:45.003Z,25.27
2019-04-25T10:26:48.808Z,27.52
2019-04-25T10:27:53.790Z,31.30
2019-04-25T10:28:57.545Z,25.15
2019-04-25T10:30:14.547Z,22.40
2019-04-25T10:31:06.599Z,28.32
2019-04-25T10:32:11.154Z,24.18
2019-04-25T10:33:17.155Z,19.73
2019-04-25T10:34:20.796Z,21.85
2019-04-25T10:35:24.434Z,30.08
2019-04-25T10:36:28.486Z,25.72
2019-04-25T10:37:33.643Z,24.67
2019-04-25T10:38:38.171Z,29.37
2019-04-25T10:39:43.813Z,30.12
2019-04-25T10:40:48.588Z,38.33
2019-04-25T10:41:54.035Z,22.62
2019-04-25T10:42:58.076Z,25.08
2019-04-25T10:44:03.338Z,35.25
2019-04-25T10:45:20.243Z,23.25
2019-04-25T10:46:14.138Z,27.55
2019-04-25T10:47:18.069Z,20.72
2019-04-25T10:48:21.752Z,31.20
2019-04-25T10:49:25.352Z,29.07
2019-04-25T10:50:28.983Z,27.93
2019-04-25T10:51:34.171Z,27.52
2019-04-25T10:52:38.991Z,24.87
2019-04-25T10:53:45.623Z,32.55
2019-04-25T10:54:48.798Z,27.98
2019-04-25T10:55:52.428Z,27.75
2019-04-25T10:56:56.115Z,23.83
2019-04-25T10:57:59.756Z,30.57
2019-04-25T10:59:04.229Z,37.50
2019-04-25T11:00:18.194Z,28.23
2019-04-25T11:01:21.928Z,26.60
2019-04-25T11:02:25.916Z,26.10
2019-04-25T11:03:41.899Z,29.95
2019-04-25T11:04:48.839Z,35.75
2019-04-25T11:05:55.670Z,24.72
2019-04-25T11:06:58.886Z,31.23
2019-04-25T11:08:04.264Z,30.35
2019-04-25T11:09:13.787Z,28.90
2019-04-25T11:10:18.740Z,39.27
2019-04-25T11:11:24.096Z,29.92
2019-04-25T11:12:27.806Z,31.27
2019-04-25T11:13:33.915Z,35.88
2019-04-25T11:14:37.539Z,40.88
2019-04-25T11:15:41.966Z,36.85
2019-04-25T11:16:46.684Z,28.65
2019-04-25T11:17:50.422Z,36.88
2019-04-25T11:18:54.825Z,34.80
2019-04-25T11:19:58.522Z,45.70
2019-04-25T11:21:05.746Z,31.85
2019-04-25T11:22:07.546Z,36.85
2019-04-25T11:23:11.199Z,27.50
2019-04-25T11:24:14.874Z,24.60
2019-04-25T11:25:18.499Z,39.20
2019-04-25T11:26:22.296Z,35.15
2019-04-25T11:27:26.284Z,32.45
2019-04-25T11:28:29.909Z,38.23
2019-04-25T11:29:34.186Z,31.27
2019-04-25T11:30:38.077Z,25.08
2019-04-25T11:31:44.816Z,30.77
2019-04-25T11:32:48.736Z,31.70
2019-04-25T11:33:54.281Z,32.20
2019-04-25T11:34:57.797Z,35.55
2019-04-25T11:36:01.452Z,21.87
2019-04-25T11:37:05.893Z,32.33
2019-04-25T11:38:11.588Z,26.33
2019-04-25T11:39:23.918Z,30.17
2019-04-25T11:40:32.515Z,31.70
2019-04-25T11:41:36.172Z,34.60
2019-04-25T11:42:39.906Z,35.83
2019-04-25T11:43:46.060Z,40.50
2019-04-25T11:44:49.738Z,23.67
2019-04-25T11:45:55.567Z,36.45
2019-04-25T11:46:59.003Z,33.08
2019-04-25T11:48:02.640Z,29.02
2019-04-25T11:49:06.463Z,37.50
2019-04-25T11:50:10.663Z,34.50
2019-04-25T11:51:14.346Z,32.38
2019-04-25T11:52:27.262Z,35.17
2019-04-25T11:53:25.016Z,28.80
2019-04-25T11:54:28.860Z,36.60
2019-04-25T11:55:32.668Z,21.73
2019-04-25T11:56:36.427Z,27.37
2019-04-25T11:57:40.079Z,26.17
2019-04-25T11:58:45.626Z,38.48
2019-04-25T11:59:50.492Z,29.87
2019-04-25T12:00:57.840Z,26.68
2019-04-25T12:01:59.825Z,28.83
2019-04-25T12:03:03.727Z,26.60
2019-04-25T12:04:07.524Z,31.02
2019-04-25T12:05:11.277Z,26.37
2019-04-25T12:06:14.907Z,33.45
2019-04-25T12:07:18.604Z,29.27
2019-04-25T12:08:22.320Z,25.02
2019-04-25T12:09:26.047Z,32.98
2019-04-25T12:10:30.249Z,26.70
2019-04-25T12:11:34.381Z,27.98
2019-04-25T12:12:38.458Z,28.87
2019-04-25T12:13:44.555Z,29.52
2019-04-25T12:14:47.654Z,31.02
2019-04-25T12:15:51.852Z,31.10
2019-04-25T12:16:56.259Z,31.45
2019-04-25T12:18:00.010Z,28.30
2019-04-25T12:19:04.794Z,31.10
2019-04-25T12:20:08.604Z,24.60
2019-04-25T12:21:13.599Z,27.65
2019-04-25T12:22:17.371Z,25.77
2019-04-25T12:23:21.119Z,31.57
2019-04-25T12:24:24.836Z,23.52
2019-04-25T12:25:28.431Z,28.85
2019-04-25T12:26:33.679Z,29.32
2019-04-25T12:27:37.404Z,28.92
2019-04-25T12:28:41.062Z,36.23
2019-04-25T12:29:45.846Z,23.07
2019-04-25T12:30:49.670Z,30.75
2019-04-25T12:31:54.781Z,27.95
2019-04-25T12:32:59.161Z,22.48
2019-04-25T12:34:03.453Z,32.93
2019-04-25T12:35:07.513Z,32.20
2019-04-25T12:36:11.141Z,28.90
2019-04-25T12:37:14.779Z,30.37
2019-04-25T12:38:20.365Z,25.17
2019-04-25T12:39:24.347Z,30.17
2019-04-25T12:40:28.137Z,31.97
2019-04-25T12:41:31.774Z,31.75
2019-04-25T12:42:35.602Z,24.82
2019-04-25T12:43:40.872Z,26.70
2019-04-25T12:45:01.510Z,28.35
2019-04-25T12:46:09.645Z,30.05
2019-04-25T12:47:14.881Z,33.33
2019-04-25T12:48:18.536Z,30.88
2019-04-25T12:49:23.831Z,29.15
2019-04-25T12:50:27.605Z,43.28
2019-04-25T12:51:31.266Z,30.60
2019-04-25T12:52:34.897Z,29.70
2019-04-25T12:53:38.534Z,26.90
2019-04-25T12:54:44.023Z,30.60
2019-04-25T12:55:48.973Z,38.02
2019-04-25T12:56:53.725Z,20.77
2019-04-25T12:57:58.179Z,32.28
2019-04-25T12:59:02.242Z,31.87
2019-04-25T13:00:06.764Z,26.37
2019-04-25T13:01:10.837Z,40.05
2019-04-25T13:02:14.545Z,30.50
2019-04-25T13:03:18.190Z,28.25
2019-04-25T13:04:21.828Z,35.65
2019-04-25T13:05:25.471Z,32.90
2019-04-25T13:06:29.155Z,38.13
2019-04-25T13:07:32.779Z,28.30
2019-04-25T13:08:36.437Z,31.80
2019-04-25T13:09:40.079Z,32.83
2019-04-25T13:10:44.576Z,30.32
2019-04-25T13:11:48.462Z,32.38
2019-04-25T13:12:55.227Z,37.63
2019-04-25T13:13:57.460Z,33.10
2019-04-25T13:15:01.133Z,33.13
2019-04-25T13:16:06.978Z,32.35
2019-04-25T13:17:10.669Z,31.27
2019-04-25T13:18:14.328Z,35.65
2019-04-25T13:19:23.742Z,27.75
2019-04-25T13:20:23.348Z,35.35
2019-04-25T13:21:26.977Z,37.20
2019-04-25T13:22:30.644Z,36.33
2019-04-25T13:23:34.338Z,31.85
2019-04-25T13:24:37.985Z,34.90
2019-04-25T13:25:41.643Z,37.88
2019-04-25T13:26:46.935Z,39.30
2019-04-25T13:27:58.545Z,32.33
2019-04-25T13:29:21.261Z,37.42
2019-04-25T13:30:43.005Z,43.20
2019-04-25T13:31:48.495Z,35.08
2019-04-25T13:33:08.956Z,37.13
2019-04-25T13:34:14.250Z,31.05
2019-04-25T13:35:23.514Z,32.40
2019-04-25T13:36:27.581Z,35.73
2019-04-25T13:37:31.233Z,25.20
2019-04-25T13:38:34.910Z,28.87
2019-04-25T13:39:39.515Z,37.53
2019-04-25T13:40:43.176Z,38.17
2019-04-25T13:41:46.893Z,32.00
2019-04-25T13:42:50.460Z,37.38
2019-04-25T13:43:54.750Z,30.90
2019-04-25T13:44:58.587Z,41.50
2019-04-25T13:46:02.352Z,33.23
2019-04-25T13:47:06.797Z,28.70
2019-04-25T13:48:10.732Z,33.28
2019-04-25T13:49:14.968Z,25.00
2019-04-25T13:50:18.618Z,43.00
2019-04-25T13:51:24.475Z,30.60
2019-04-25T13:52:28.927Z,32.00
2019-04-25T13:53:33.539Z,28.55
2019-04-25T13:54:37.380Z,28.67
2019-04-25T13:55:40.992Z,33.67
2019-04-25T13:56:44.572Z,30.05
2019-04-25T13:57:48.295Z,30.82
2019-04-25T13:58:51.956Z,38.02
2019-04-25T13:59:55.656Z,46.58
2019-04-25T14:00:59.550Z,30.20
2019-04-25T14:02:04.826Z,33.45
2019-04-25T14:03:08.490Z,32.65